createdAt,value
2022-10-04T00:01:14.652Z,7.60
2022-10-04T00:05:20.506Z,7.60
2022-10-04T00:09:30.600Z,7.60
2022-10-04T00:13:35.537Z,7.60
2022-10-04T00:17:39.046Z,7.50
2022-10-04T00:21:57.431Z,7.50
2022-10-04T00:26:12.002Z,7.50
2022-10-04T00:30:28.351Z,7.50
2022-10-04T00:34:31.485Z,7.50
2022-10-04T00:38:36.875Z,7.60
2022-10-04T00:43:14.372Z,7.70
2022-10-04T00:47:24.304Z,7.80
2022-10-04T00:51:39.331Z,7.90
2022-10-04T00:55:56.262Z,8.00
2022-10-04T01:00:05.393Z,8.00
2022-10-04T01:04:29.544Z,8.00
2022-10-04T01:08:47.563Z,8.10
2022-10-04T01:13:33.644Z,8.20
2022-10-04T01:17:42.549Z,8.20
2022-10-04T01:21:48.756Z,8.20
2022-10-04T01:25:53.290Z,8.20
2022-10-04T01:29:57.971Z,8.20
2022-10-04T01:34:06.519Z,8.20
2022-10-04T01:38:11.557Z,8.30
2022-10-04T01:42:29.534Z,8.30
2022-10-04T01:46:37.693Z,8.30
2022-10-04T01:50:45.630Z,8.30
2022-10-04T01:54:53.890Z,8.30
2022-10-04T01:59:04.279Z,8.30
2022-10-04T02:03:19.847Z,8.30
2022-10-04T02:07:35.304Z,8.30
2022-10-04T02:11:41.937Z,8.30
2022-10-04T02:15:53.779Z,8.40
2022-10-04T02:20:05.894Z,8.40
2022-10-04T02:24:10.784Z,8.40
2022-10-04T02:28:21.838Z,8.40
2022-10-04T02:33:00.600Z,8.40
2022-10-04T02:37:18.575Z,8.40
2022-10-04T02:41:38.499Z,8.50
2022-10-04T02:46:06.208Z,8.40
2022-10-04T02:50:33.239Z,8.40
2022-10-04T02:54:49.694Z,8.50
2022-10-04T02:58:56.079Z,8.40
2022-10-04T03:03:23.730Z,8.50
2022-10-04T03:07:28.657Z,8.40
2022-10-04T03:11:37.452Z,8.40
2022-10-04T03:15:43.841Z,8.40
2022-10-04T03:19:51.981Z,8.40
2022-10-04T03:23:54.937Z,8.40
2022-10-04T03:28:02.423Z,8.40
2022-10-04T03:32:09.997Z,8.40
2022-10-04T03:36:20.115Z,8.40
2022-10-04T03:40:30.505Z,8.40
2022-10-04T03:44:33.415Z,8.40
2022-10-04T03:48:43.861Z,8.40
2022-10-04T03:52:54.820Z,8.40
2022-10-04T03:57:01.515Z,8.40
2022-10-04T04:01:22.027Z,8.40
2022-10-04T04:05:47.355Z,8.40
2022-10-04T04:09:58.524Z,8.40
2022-10-04T04:14:11.682Z,8.40
2022-10-04T04:18:19.317Z,8.40
2022-10-04T04:22:24.911Z,8.40
2022-10-04T04:26:50.832Z,8.50
2022-10-04T04:31:08.807Z,8.40
2022-10-04T04:35:32.858Z,8.40
2022-10-04T04:39:52.797Z,8.50
2022-10-04T04:43:56.810Z,8.50
2022-10-04T04:48:01.775Z,8.50
2022-10-04T04:52:04.791Z,8.40
2022-10-04T04:56:11.029Z,8.50
2022-10-04T05:00:27.011Z,8.50
2022-10-04T05:04:42.595Z,8.40
2022-10-04T05:08:51.217Z,8.50
2022-10-04T05:12:54.337Z,8.50
2022-10-04T05:16:58.713Z,8.50
2022-10-04T05:21:16.790Z,8.50
2022-10-04T05:25:29.828Z,8.50
2022-10-04T05:29:36.287Z,8.60
2022-10-04T05:33:48.876Z,8.60
2022-10-04T05:38:18.291Z,8.70
2022-10-04T05:42:25.459Z,8.70
2022-10-04T05:46:33.701Z,8.70
2022-10-04T05:50:40.943Z,8.80
2022-10-04T05:54:45.169Z,8.90
2022-10-04T05:58:57.555Z,8.90
2022-10-04T06:03:31.780Z,8.90
2022-10-04T06:07:52.344Z,9.00
2022-10-04T06:12:09.892Z,9.00
2022-10-04T06:16:23.378Z,9.10
2022-10-04T06:20:50.177Z,9.10
2022-10-04T06:24:52.891Z,9.10
2022-10-04T06:29:07.473Z,9.20
2022-10-04T06:33:45.099Z,9.30
2022-10-04T06:37:59.450Z,9.50
2022-10-04T06:42:15.544Z,9.60
2022-10-04T06:46:43.276Z,9.80
2022-10-04T06:51:22.793Z,9.90
2022-10-04T06:55:53.105Z,10.00
2022-10-04T07:00:16.074Z,10.10
2022-10-04T07:05:06.871Z,10.20
2022-10-04T07:09:09.395Z,10.40
2022-10-04T07:13:24.712Z,10.60
2022-10-04T07:17:38.557Z,10.80
2022-10-04T07:22:04.588Z,10.80
2022-10-04T07:26:18.880Z,11.00
2022-10-04T07:30:26.444Z,11.20
2022-10-04T07:34:31.626Z,11.30
2022-10-04T07:38:44.275Z,11.40
2022-10-04T07:42:57.759Z,11.50
2022-10-04T07:47:24.894Z,11.70
2022-10-04T07:51:45.854Z,11.80
2022-10-04T07:56:00.738Z,11.70
2022-10-04T08:00:23.422Z,11.80
2022-10-04T08:04:46.489Z,11.90
2022-10-04T08:09:17.112Z,12.10
2022-10-04T08:13:40.325Z,12.20
2022-10-04T08:17:57.294Z,12.10
2022-10-04T08:22:22.783Z,12.20
2022-10-04T08:26:38.778Z,12.30
2022-10-04T08:31:09.377Z,12.30
2022-10-04T08:35:38.030Z,12.40
2022-10-04T08:40:04.474Z,12.30
2022-10-04T08:44:47.666Z,12.40
2022-10-04T08:49:09.689Z,12.50
2022-10-04T08:53:45.445Z,12.50
2022-10-04T08:58:02.842Z,12.60
2022-10-04T09:02:46.977Z,12.60
2022-10-04T09:07:31.539Z,12.80
2022-10-04T09:11:52.341Z,12.80
2022-10-04T09:16:17.184Z,12.80
2022-10-04T09:20:43.645Z,12.80
2022-10-04T09:25:17.476Z,12.80
2022-10-04T09:29:47.499Z,12.80
2022-10-04T09:33:56.535Z,13.00
2022-10-04T09:38:10.996Z,13.00
2022-10-04T09:42:13.149Z,13.20
2022-10-04T09:46:21.742Z,13.40
2022-10-04T09:50:56.455Z,13.60
2022-10-04T09:55:14.698Z,13.80
2022-10-04T09:59:43.629Z,13.80
2022-10-04T10:04:20.121Z,13.60
2022-10-04T10:08:57.610Z,13.60
2022-10-04T10:13:46.316Z,13.20
2022-10-04T10:18:09.176Z,13.40
2022-10-04T10:22:29.451Z,13.40
2022-10-04T10:26:34.222Z,13.70
2022-10-04T10:31:11.911Z,13.80
2022-10-04T10:35:26.678Z,13.90
2022-10-04T10:40:17.400Z,14.10
2022-10-04T10:44:23.765Z,14.30
2022-10-04T10:48:35.333Z,14.30
2022-10-04T10:53:15.675Z,14.60
2022-10-04T10:58:09.467Z,14.70
2022-10-04T11:02:50.307Z,14.60
2022-10-04T11:06:53.716Z,14.50
2022-10-04T11:11:33.471Z,14.40
2022-10-04T11:15:57.447Z,14.30
2022-10-04T11:20:25.533Z,14.40
2022-10-04T11:24:43.835Z,14.40
2022-10-04T11:29:18.048Z,14.50
2022-10-04T11:33:59.290Z,14.60
2022-10-04T11:38:07.036Z,14.50
2022-10-04T11:42:27.315Z,14.60
2022-10-04T11:46:36.458Z,14.80
2022-10-04T11:50:41.709Z,15.10
2022-10-04T11:55:18.783Z,15.00
2022-10-04T11:59:38.952Z,15.10
2022-10-04T12:04:03.588Z,15.50
2022-10-04T12:08:32.499Z,15.30
2022-10-04T12:12:59.208Z,14.90
2022-10-04T12:17:11.426Z,14.90
2022-10-04T12:21:43.086Z,15.00
2022-10-04T12:26:24.264Z,15.40
2022-10-04T12:30:38.549Z,15.80
2022-10-04T12:34:59.492Z,15.90
2022-10-04T12:39:32.734Z,15.90
2022-10-04T12:44:10.026Z,15.50
2022-10-04T12:48:21.413Z,15.20
2022-10-04T12:52:28.221Z,15.40
2022-10-04T12:57:01.709Z,15.60
2022-10-04T13:01:24.671Z,15.90
2022-10-04T13:06:05.117Z,15.90
2022-10-04T13:10:42.817Z,16.00
2022-10-04T13:15:00.596Z,16.20
2022-10-04T13:19:25.329Z,16.10
2022-10-04T13:23:56.725Z,16.30
2022-10-04T13:28:24.525Z,16.30
2022-10-04T13:32:33.610Z,16.30
2022-10-04T13:36:56.417Z,16.60
2022-10-04T13:41:33.655Z,16.70
2022-10-04T13:45:53.275Z,16.70
2022-10-04T13:50:25.318Z,16.90
2022-10-04T13:55:01.294Z,16.90
2022-10-04T13:59:34.408Z,16.90
2022-10-04T14:03:53.368Z,17.10
2022-10-04T14:07:55.679Z,17.10
2022-10-04T14:12:40.301Z,17.30
2022-10-04T14:16:51.871Z,17.10
2022-10-04T14:21:24.802Z,17.10
2022-10-04T14:25:51.982Z,17.20
2022-10-04T14:30:24.450Z,17.10
2022-10-04T14:35:05.111Z,17.30
2022-10-04T14:39:28.390Z,17.30
2022-10-04T14:43:52.489Z,17.20
2022-10-04T14:48:19.964Z,17.20
2022-10-04T14:52:36.599Z,17.20
2022-10-04T14:56:58.238Z,17.10
2022-10-04T15:01:33.582Z,17.00
2022-10-04T15:05:46.186Z,17.00
2022-10-04T15:09:48.765Z,16.70
2022-10-04T15:13:57.953Z,16.40
2022-10-04T15:18:27.934Z,16.10
2022-10-04T15:23:08.266Z,16.00
2022-10-04T15:27:35.552Z,15.80
2022-10-04T15:32:07.529Z,15.50
2022-10-04T15:36:40.165Z,15.30
2022-10-04T15:40:53.961Z,15.10
2022-10-04T15:45:18.156Z,14.90
2022-10-04T15:49:30.858Z,14.70
2022-10-04T15:53:57.442Z,14.60
2022-10-04T15:58:09.979Z,14.40
2022-10-04T16:02:30.385Z,14.20
2022-10-04T16:06:56.636Z,14.10
2022-10-04T16:11:20.460Z,14.00
2022-10-04T16:15:39.785Z,13.80
2022-10-04T16:20:02.281Z,13.60
2022-10-04T16:24:20.566Z,13.50
2022-10-04T16:28:36.207Z,13.30
2022-10-04T16:32:44.737Z,13.20
2022-10-04T16:36:53.822Z,13.00
2022-10-04T16:41:02.547Z,12.80
2022-10-04T16:45:07.818Z,12.70
2022-10-04T16:49:25.298Z,12.60
2022-10-04T16:54:05.350Z,12.40
2022-10-04T16:58:30.841Z,12.30
2022-10-04T17:03:17.558Z,12.10
2022-10-04T17:07:28.115Z,12.00
2022-10-04T17:11:57.650Z,11.80
2022-10-04T17:16:11.394Z,11.70
2022-10-04T17:20:41.143Z,11.50
2022-10-04T17:24:52.525Z,11.40
2022-10-04T17:29:15.766Z,11.30
2022-10-04T17:33:18.524Z,11.30
2022-10-04T17:37:30.017Z,11.20
2022-10-04T17:41:46.026Z,11.20
2022-10-04T17:46:00.823Z,11.10
2022-10-04T17:50:31.713Z,11.00
2022-10-04T17:55:13.107Z,10.90
2022-10-04T17:59:29.963Z,10.80
2022-10-04T18:03:45.217Z,10.70
2022-10-04T18:07:59.793Z,10.60
2022-10-04T18:12:11.481Z,10.60
2022-10-04T18:16:27.048Z,10.50
2022-10-04T18:20:34.232Z,10.40
2022-10-04T18:24:36.584Z,10.40
2022-10-04T18:28:38.938Z,10.30
2022-10-04T18:33:14.537Z,10.30
2022-10-04T18:37:28.520Z,10.20
2022-10-04T18:41:50.325Z,10.20
2022-10-04T18:46:22.993Z,10.10
2022-10-04T18:50:48.881Z,10.10
2022-10-04T18:55:00.352Z,10.10
2022-10-04T18:59:51.805Z,10.00
2022-10-04T19:04:04.876Z,10.00
2022-10-04T19:08:19.217Z,10.00
2022-10-04T19:12:28.313Z,9.90
2022-10-04T19:16:48.523Z,9.90
2022-10-04T19:21:32.911Z,9.90
2022-10-04T19:25:39.647Z,9.90
2022-10-04T19:30:06.657Z,9.90
2022-10-04T19:34:18.724Z,9.90
2022-10-04T19:38:21.940Z,9.90
2022-10-04T19:42:46.365Z,9.90
2022-10-04T19:47:27.461Z,9.80
2022-10-04T19:51:40.398Z,9.70
2022-10-04T19:55:56.739Z,9.60
2022-10-04T20:00:01.720Z,9.60
2022-10-04T20:04:35.446Z,9.50
2022-10-04T20:09:02.311Z,9.50
2022-10-04T20:13:21.661Z,9.60
2022-10-04T20:17:34.379Z,9.60
2022-10-04T20:21:37.919Z,9.60
2022-10-04T20:25:46.186Z,9.50
2022-10-04T20:29:51.954Z,9.50
2022-10-04T20:33:55.640Z,9.50
2022-10-04T20:38:20.051Z,9.40
2022-10-04T20:42:35.081Z,9.40
2022-10-04T20:46:39.167Z,9.40
2022-10-04T20:50:46.601Z,9.30
2022-10-04T20:54:53.719Z,9.30
2022-10-04T20:59:02.527Z,9.30
2022-10-04T21:03:17.491Z,9.20
2022-10-04T21:07:24.341Z,9.20
2022-10-04T21:11:43.972Z,9.20
2022-10-04T21:15:57.442Z,9.20
2022-10-04T21:20:03.037Z,9.20
2022-10-04T21:24:36.751Z,9.20
2022-10-04T21:28:39.554Z,9.20
2022-10-04T21:32:43.322Z,9.20
2022-10-04T21:36:45.441Z,9.20
2022-10-04T21:40:48.533Z,9.10
2022-10-04T21:44:55.241Z,9.10
2022-10-04T21:49:00.952Z,9.00
2022-10-04T21:53:03.186Z,9.00
2022-10-04T21:57:07.940Z,8.90
2022-10-04T22:01:11.275Z,8.80
2022-10-04T22:05:15.817Z,8.80
2022-10-04T22:09:18.020Z,8.70
2022-10-04T22:13:21.721Z,8.70
2022-10-04T22:17:23.876Z,8.60
2022-10-04T22:21:28.294Z,8.60
2022-10-04T22:25:31.959Z,8.50
2022-10-04T22:29:36.533Z,8.50
2022-10-04T22:33:42.239Z,8.50
2022-10-04T22:37:45.974Z,8.40
2022-10-04T22:41:54.442Z,8.40
2022-10-04T22:45:56.864Z,8.40
2022-10-04T22:50:00.941Z,8.40
2022-10-04T22:54:04.039Z,8.40
2022-10-04T22:58:07.351Z,8.40
2022-10-04T23:02:16.652Z,8.30
2022-10-04T23:06:19.986Z,8.30
2022-10-04T23:10:22.261Z,8.30
2022-10-04T23:14:26.614Z,8.20
2022-10-04T23:18:31.176Z,8.20
2022-10-04T23:22:35.777Z,8.30
2022-10-04T23:26:41.306Z,8.20
2022-10-04T23:30:46.564Z,8.20
2022-10-04T23:34:56.273Z,8.20
2022-10-04T23:39:00.818Z,8.10
2022-10-04T23:43:04.732Z,8.10
2022-10-04T23:47:16.104Z,8.10
2022-10-04T23:51:20.699Z,8.10
2022-10-04T23:55:27.782Z,8.00
2022-10-04T23:59:30.230Z,8.00
